createdAt,value
2022-09-10T00:02:02.429Z,9.65
2022-09-10T00:04:29.147Z,9.50
2022-09-10T00:06:56.722Z,9.50
2022-09-10T00:09:23.503Z,9.73
2022-09-10T00:11:50.610Z,10.00
2022-09-10T00:14:21.554Z,9.50
2022-09-10T00:16:49.685Z,9.25
2022-09-10T00:19:16.978Z,9.27
2022-09-10T00:21:45.968Z,9.90
2022-09-10T00:24:14.163Z,9.38
2022-09-10T00:26:40.806Z,9.32
2022-09-10T00:29:12.107Z,9.00
2022-09-10T00:31:39.969Z,13.05
2022-09-10T00:34:07.531Z,16.63
2022-09-10T00:36:37.239Z,25.98
2022-09-10T00:41:39.556Z,41.28
2022-09-10T00:44:37.531Z,38.38
2022-09-10T00:47:06.305Z,39.97
2022-09-10T00:49:39.392Z,35.05
2022-09-10T00:52:07.826Z,21.95
2022-09-10T00:54:36.210Z,19.25
2022-09-10T00:57:12.616Z,19.90
2022-09-10T00:59:44.863Z,24.10
2022-09-10T01:02:12.299Z,19.77
2022-09-10T01:04:40.517Z,14.60
2022-09-10T01:07:09.927Z,9.73
2022-09-10T01:09:38.532Z,9.30
2022-09-10T01:12:57.457Z,9.68
2022-09-10T01:15:46.254Z,7.40
2022-09-10T01:18:52.279Z,5.73
2022-09-10T01:21:32.019Z,4.97
2022-09-10T01:26:56.588Z,4.78
2022-09-10T01:29:46.029Z,3.80
2022-09-10T01:32:17.696Z,3.88
2022-09-10T01:35:17.125Z,3.83
2022-09-10T01:37:59.425Z,3.90
2022-09-10T01:40:30.777Z,4.03
2022-09-10T01:43:02.620Z,4.95
2022-09-10T01:45:32.855Z,4.55
2022-09-10T01:48:16.267Z,4.70
2022-09-10T01:50:51.679Z,4.10
2022-09-10T01:53:36.467Z,3.65
2022-09-10T01:56:35.506Z,2.53
2022-09-10T01:59:14.236Z,2.55
2022-09-10T02:01:47.339Z,2.10
2022-09-10T02:04:15.961Z,2.00
2022-09-10T02:06:46.810Z,1.77
2022-09-10T02:09:16.159Z,2.17
2022-09-10T02:11:54.361Z,1.65
2022-09-10T02:14:22.274Z,1.70
2022-09-10T02:17:00.961Z,1.40
2022-09-10T02:19:28.034Z,1.63
2022-09-10T02:21:57.005Z,2.08
2022-09-10T02:24:23.911Z,2.60
2022-09-10T02:26:51.326Z,4.00
2022-09-10T02:29:19.409Z,5.10
2022-09-10T02:31:49.730Z,5.47
2022-09-10T02:34:16.346Z,4.07
2022-09-10T02:36:43.543Z,3.30
2022-09-10T02:39:10.382Z,2.50
2022-09-10T02:41:38.183Z,2.60
2022-09-10T02:44:04.827Z,2.25
2022-09-10T02:46:31.903Z,2.00
2022-09-10T02:48:59.041Z,2.03
2022-09-10T02:51:26.306Z,1.80
2022-09-10T02:53:53.404Z,1.60
2022-09-10T02:56:20.125Z,1.60
2022-09-10T02:58:46.888Z,2.33
2022-09-10T03:01:16.344Z,1.80
2022-09-10T03:03:43.037Z,1.83
2022-09-10T03:06:12.569Z,1.90
2022-09-10T03:08:39.297Z,1.50
2022-09-10T03:11:07.573Z,1.60
2022-09-10T03:13:35.463Z,1.77
2022-09-10T03:16:05.959Z,1.83
2022-09-10T03:18:32.671Z,1.73
2022-09-10T03:21:15.957Z,2.00
2022-09-10T03:23:44.922Z,1.90
2022-09-10T03:26:12.109Z,2.25
2022-09-10T03:28:39.004Z,1.80
2022-09-10T03:31:06.029Z,2.10
2022-09-10T03:33:33.581Z,2.30
2022-09-10T03:36:00.884Z,2.90
2022-09-10T03:38:27.883Z,2.70
2022-09-10T03:40:55.149Z,2.75
2022-09-10T03:43:22.531Z,2.60
2022-09-10T03:45:52.868Z,2.78
2022-09-10T03:48:20.593Z,2.97
2022-09-10T03:50:48.166Z,3.13
2022-09-10T03:53:15.911Z,3.60
2022-09-10T03:55:47.140Z,3.58
2022-09-10T03:58:14.939Z,3.92
2022-09-10T04:00:43.178Z,5.20
2022-09-10T04:03:11.118Z,4.82
2022-09-10T04:05:45.118Z,5.20
2022-09-10T04:08:15.457Z,5.10
2022-09-10T04:10:44.153Z,3.70
2022-09-10T04:13:11.250Z,4.43
2022-09-10T04:15:38.613Z,3.38
2022-09-10T04:18:06.469Z,4.00
2022-09-10T04:20:35.105Z,3.72
2022-09-10T04:23:03.026Z,3.83
2022-09-10T04:25:30.035Z,3.58
2022-09-10T04:27:56.632Z,3.83
2022-09-10T04:30:23.443Z,4.75
2022-09-10T04:32:50.457Z,4.88
2022-09-10T04:35:17.190Z,3.90
2022-09-10T04:37:43.849Z,4.80
2022-09-10T04:40:13.012Z,4.85
2022-09-10T04:42:39.742Z,4.50
2022-09-10T04:45:07.289Z,4.80
2022-09-10T04:47:34.445Z,4.82
2022-09-10T04:50:01.693Z,4.45
2022-09-10T04:52:29.058Z,4.68
2022-09-10T04:54:56.000Z,5.50
2022-09-10T04:57:23.678Z,11.07
2022-09-10T04:59:50.378Z,5.78
2022-09-10T05:02:17.030Z,5.10
2022-09-10T05:04:44.248Z,5.03
2022-09-10T05:07:10.881Z,4.47
2022-09-10T05:09:37.729Z,4.22
2022-09-10T05:12:04.505Z,4.13
2022-09-10T05:14:31.213Z,4.82
2022-09-10T05:16:58.371Z,4.50
2022-09-10T05:19:25.179Z,4.85
2022-09-10T05:21:51.809Z,5.45
2022-09-10T05:24:18.463Z,5.70
2022-09-10T05:26:46.573Z,5.28
2022-09-10T05:29:14.121Z,5.10
2022-09-10T05:31:41.253Z,5.85
2022-09-10T05:34:08.505Z,6.20
2022-09-10T05:36:35.622Z,7.60
2022-09-10T05:39:03.872Z,7.30
2022-09-10T05:41:31.289Z,6.75
2022-09-10T05:43:58.418Z,7.20
2022-09-10T05:46:25.498Z,6.40
2022-09-10T05:48:55.818Z,6.22
2022-09-10T05:51:22.701Z,7.65
2022-09-10T05:53:50.079Z,7.57
2022-09-10T05:56:16.898Z,6.60
2022-09-10T05:58:45.360Z,6.57
2022-09-10T06:01:12.455Z,5.85
2022-09-10T06:03:40.500Z,6.78
2022-09-10T06:06:07.572Z,7.13
2022-09-10T06:08:35.644Z,6.80
2022-09-10T06:11:05.931Z,5.85
2022-09-10T06:13:34.551Z,5.97
2022-09-10T06:16:03.212Z,6.10
2022-09-10T06:18:30.929Z,5.95
2022-09-10T06:21:09.267Z,5.82
2022-09-10T06:23:39.391Z,6.13
2022-09-10T06:26:09.863Z,5.90
2022-09-10T06:28:36.847Z,6.00
2022-09-10T06:31:04.508Z,4.70
2022-09-10T06:33:32.212Z,5.95
2022-09-10T06:36:00.763Z,6.03
2022-09-10T06:38:37.541Z,5.70
2022-09-10T06:41:07.057Z,5.95
2022-09-10T06:43:36.757Z,6.38
2022-09-10T06:49:01.090Z,6.40
2022-09-10T06:51:27.770Z,8.30
2022-09-10T06:53:54.404Z,7.25
2022-09-10T06:56:21.596Z,5.90
2022-09-10T06:58:48.413Z,6.43
2022-09-10T07:01:17.748Z,6.57
2022-09-10T07:03:46.582Z,6.18
2022-09-10T07:06:17.839Z,5.33
2022-09-10T07:08:44.920Z,5.85
2022-09-10T07:11:13.651Z,5.60
2022-09-10T07:13:41.586Z,6.05
2022-09-10T07:16:08.998Z,5.20
2022-09-10T07:18:36.515Z,4.95
2022-09-10T07:21:11.468Z,5.70
2022-09-10T07:23:42.698Z,5.75
2022-09-10T07:26:12.071Z,5.53
2022-09-10T07:28:40.499Z,5.00
2022-09-10T07:31:18.844Z,4.75
2022-09-10T07:33:45.951Z,4.13
2022-09-10T07:36:12.728Z,4.90
2022-09-10T07:38:40.997Z,4.25
2022-09-10T07:41:12.347Z,4.85
2022-09-10T07:43:43.764Z,4.72
2022-09-10T07:46:16.484Z,4.32
2022-09-10T07:48:43.141Z,4.75
2022-09-10T07:51:11.664Z,3.67
2022-09-10T07:53:38.812Z,4.13
2022-09-10T07:56:07.938Z,4.03
2022-09-10T07:58:36.187Z,3.35
2022-09-10T08:01:09.255Z,2.88
2022-09-10T08:03:36.034Z,3.13
2022-09-10T08:06:04.040Z,3.65
2022-09-10T08:08:35.651Z,2.80
2022-09-10T08:11:13.261Z,3.40
2022-09-10T08:13:48.267Z,3.00
2022-09-10T08:16:19.074Z,4.28
2022-09-10T08:18:51.312Z,6.40
2022-09-10T08:21:19.127Z,6.95
2022-09-10T08:23:59.689Z,7.85
2022-09-10T08:26:26.467Z,7.88
2022-09-10T08:28:55.966Z,9.88
2022-09-10T08:33:53.705Z,11.60
2022-09-10T08:36:22.081Z,13.45
2022-09-10T08:38:55.140Z,11.13
2022-09-10T08:41:44.896Z,10.65
2022-09-10T08:44:16.261Z,10.00
2022-09-10T08:46:48.765Z,13.57
2022-09-10T08:49:36.792Z,12.00
2022-09-10T08:52:16.742Z,14.10
2022-09-10T08:54:54.841Z,12.93
2022-09-10T08:57:32.872Z,12.35
2022-09-10T09:00:01.823Z,8.07
2022-09-10T09:03:02.451Z,8.90
2022-09-10T09:05:38.423Z,7.70
2022-09-10T09:08:06.393Z,9.65
2022-09-10T09:10:46.647Z,10.20
2022-09-10T09:13:28.955Z,11.20
2022-09-10T09:16:01.479Z,10.32
2022-09-10T09:18:48.132Z,5.38
2022-09-10T09:21:23.799Z,5.57
2022-09-10T09:24:12.667Z,6.05
2022-09-10T09:26:42.046Z,5.78
2022-09-10T09:29:15.231Z,5.35
2022-09-10T09:31:47.683Z,5.10
2022-09-10T09:34:29.350Z,4.47
2022-09-10T09:37:01.462Z,5.88
2022-09-10T09:39:36.360Z,5.47
2022-09-10T09:42:25.162Z,5.00
2022-09-10T09:45:08.386Z,4.85
2022-09-10T09:47:35.194Z,5.15
2022-09-10T09:50:01.854Z,6.00
2022-09-10T09:52:31.930Z,4.47
2022-09-10T09:55:14.720Z,5.47
2022-09-10T09:57:43.131Z,5.57
2022-09-10T10:00:33.049Z,6.18
2022-09-10T10:03:20.725Z,5.82
2022-09-10T10:05:48.803Z,5.40
2022-09-10T10:08:34.305Z,6.15
2022-09-10T10:11:01.618Z,5.50
2022-09-10T10:13:43.284Z,5.35
2022-09-10T10:16:23.671Z,3.95
2022-09-10T10:18:50.845Z,4.43
2022-09-10T10:21:17.488Z,5.05
2022-09-10T10:23:44.778Z,5.40
2022-09-10T10:26:20.492Z,5.80
2022-09-10T10:28:56.836Z,5.00
2022-09-10T10:31:24.208Z,5.50
2022-09-10T10:33:56.634Z,5.60
2022-09-10T10:36:39.522Z,5.68
2022-09-10T10:39:40.389Z,6.50
2022-09-10T10:42:35.553Z,4.97
2022-09-10T10:45:24.119Z,4.43
2022-09-10T10:48:16.148Z,3.97
2022-09-10T10:50:55.711Z,3.30
2022-09-10T10:53:31.410Z,3.78
2022-09-10T10:55:58.610Z,3.15
2022-09-10T10:58:51.090Z,3.05
2022-09-10T11:01:22.064Z,3.55
2022-09-10T11:04:11.661Z,3.08
2022-09-10T11:06:45.147Z,4.82
2022-09-10T11:09:14.671Z,3.50
2022-09-10T11:12:03.819Z,3.42
2022-09-10T11:14:33.529Z,4.10
2022-09-10T11:17:06.812Z,4.75
2022-09-10T11:19:43.265Z,4.57
2022-09-10T11:22:22.020Z,5.03
2022-09-10T11:24:51.328Z,4.80
2022-09-10T11:27:29.218Z,5.20
2022-09-10T11:30:04.744Z,4.47
2022-09-10T11:32:35.202Z,5.05
2022-09-10T11:35:13.411Z,4.38
2022-09-10T11:38:01.347Z,3.63
2022-09-10T11:41:00.457Z,3.90
2022-09-10T11:43:49.054Z,4.00
2022-09-10T11:46:22.037Z,3.72
2022-09-10T11:48:51.498Z,4.03
2022-09-10T11:51:31.359Z,4.45
2022-09-10T11:53:58.438Z,4.65
2022-09-10T11:56:38.029Z,4.60
2022-09-10T11:59:20.874Z,4.78
2022-09-10T12:02:33.076Z,4.95
2022-09-10T12:05:18.435Z,4.78
2022-09-10T12:08:08.019Z,4.88
2022-09-10T12:11:07.645Z,4.28
2022-09-10T12:13:39.500Z,5.13
2022-09-10T12:16:22.715Z,4.88
2022-09-10T12:18:53.039Z,6.40
2022-09-10T12:21:28.682Z,5.30
2022-09-10T12:23:56.447Z,5.68
2022-09-10T12:26:23.919Z,6.50
2022-09-10T12:28:53.234Z,6.05
2022-09-10T12:31:21.934Z,5.93
2022-09-10T12:33:48.535Z,5.85
2022-09-10T12:36:35.775Z,6.05
2022-09-10T12:39:21.092Z,4.90
2022-09-10T12:41:47.681Z,3.28
2022-09-10T12:44:29.298Z,2.53
2022-09-10T12:47:15.315Z,2.75
2022-09-10T12:49:51.919Z,4.45
2022-09-10T12:52:36.392Z,3.83
2022-09-10T12:55:03.001Z,3.17
2022-09-10T12:57:52.466Z,3.17
2022-09-10T13:00:23.952Z,1.95
2022-09-10T13:03:09.609Z,2.10
2022-09-10T13:05:44.992Z,2.08
2022-09-10T13:08:45.091Z,1.65
2022-09-10T13:14:18.885Z,1.65
2022-09-10T13:16:50.463Z,1.77
2022-09-10T13:19:19.930Z,1.13
2022-09-10T13:21:48.212Z,1.50
2022-09-10T13:24:36.356Z,2.17
2022-09-10T13:27:22.614Z,1.58
2022-09-10T13:30:11.700Z,1.10
2022-09-10T13:33:05.511Z,1.08
2022-09-10T13:35:50.620Z,1.60
2022-09-10T13:38:33.184Z,1.60
2022-09-10T13:41:16.642Z,1.40
2022-09-10T13:44:27.083Z,1.40
2022-09-10T13:47:00.057Z,2.00
2022-09-10T13:49:55.423Z,1.50
2022-09-10T13:52:31.072Z,1.95
2022-09-10T13:55:00.639Z,1.75
2022-09-10T13:58:04.466Z,1.77
2022-09-10T14:00:41.193Z,1.98
2022-09-10T14:03:16.714Z,1.63
2022-09-10T14:05:50.850Z,2.22
2022-09-10T14:08:23.787Z,2.20
2022-09-10T14:11:08.153Z,1.83
2022-09-10T14:14:16.988Z,2.03
2022-09-10T14:16:52.724Z,2.30
2022-09-10T14:19:22.963Z,1.73
2022-09-10T14:21:51.762Z,2.00
2022-09-10T14:24:33.750Z,1.88
2022-09-10T14:27:27.838Z,2.60
2022-09-10T14:29:56.633Z,2.25
2022-09-10T14:32:25.847Z,2.00
2022-09-10T14:34:52.608Z,2.20
2022-09-10T14:37:28.667Z,2.03
2022-09-10T14:39:56.712Z,2.03
2022-09-10T14:42:33.031Z,2.17
2022-09-10T14:45:00.109Z,2.25
2022-09-10T14:47:35.082Z,2.55
2022-09-10T14:50:38.731Z,2.25
2022-09-10T14:53:05.329Z,2.65
2022-09-10T14:55:32.776Z,2.60
2022-09-10T14:57:59.851Z,2.97
2022-09-10T15:00:26.759Z,2.42
2022-09-10T15:02:58.763Z,2.67
2022-09-10T15:05:25.524Z,2.15
2022-09-10T15:07:52.152Z,2.60
2022-09-10T15:10:18.854Z,2.50
2022-09-10T15:12:50.232Z,2.88
2022-09-10T15:15:17.930Z,2.75
2022-09-10T15:17:44.851Z,2.75
2022-09-10T15:20:17.097Z,2.75
2022-09-10T15:22:44.704Z,2.83
2022-09-10T15:25:43.525Z,3.58
2022-09-10T15:28:10.371Z,3.50
2022-09-10T15:30:37.061Z,3.15
2022-09-10T15:33:07.518Z,2.97
2022-09-10T15:35:34.263Z,3.42
2022-09-10T15:38:03.981Z,3.42
2022-09-10T15:40:31.870Z,3.78
2022-09-10T15:42:58.506Z,4.82
2022-09-10T15:45:25.353Z,4.57
2022-09-10T15:47:52.065Z,3.08
2022-09-10T15:50:20.290Z,3.10
2022-09-10T15:52:47.531Z,3.42
2022-09-10T15:55:14.317Z,4.10
2022-09-10T15:57:41.386Z,4.68
2022-09-10T16:00:08.716Z,3.65
2022-09-10T16:02:35.489Z,4.55
2022-09-10T16:05:02.245Z,3.92
2022-09-10T16:07:29.568Z,3.83
2022-09-10T16:09:58.912Z,4.00
2022-09-10T16:12:28.293Z,4.30
2022-09-10T16:15:01.308Z,4.22
2022-09-10T16:17:28.649Z,3.85
2022-09-10T16:19:56.799Z,3.50
2022-09-10T16:22:24.133Z,4.40
2022-09-10T16:24:50.761Z,3.25
2022-09-10T16:27:18.713Z,3.63
2022-09-10T16:29:46.414Z,3.50
2022-09-10T16:32:13.516Z,4.82
2022-09-10T16:34:41.972Z,4.72
2022-09-10T16:37:08.740Z,4.43
2022-09-10T16:39:36.300Z,3.97
2022-09-10T16:42:03.457Z,4.10
2022-09-10T16:44:31.528Z,10.35
2022-09-10T16:46:59.431Z,4.03
2022-09-10T16:49:27.534Z,3.67
2022-09-10T16:51:55.002Z,4.10
2022-09-10T16:54:23.207Z,3.60
2022-09-10T16:56:50.516Z,7.90
2022-09-10T16:59:20.411Z,4.75
2022-09-10T17:01:48.429Z,3.97
2022-09-10T17:04:20.456Z,3.67
2022-09-10T17:06:49.047Z,4.25
2022-09-10T17:09:15.943Z,3.67
2022-09-10T17:11:42.600Z,4.07
2022-09-10T17:14:09.313Z,4.15
2022-09-10T17:16:40.003Z,3.85
2022-09-10T17:19:15.286Z,3.90
2022-09-10T17:21:44.541Z,4.13
2022-09-10T17:24:13.200Z,4.20
2022-09-10T17:26:40.980Z,4.35
2022-09-10T17:29:10.491Z,4.70
2022-09-10T17:31:37.256Z,4.47
2022-09-10T17:34:04.746Z,5.28
2022-09-10T17:36:32.339Z,4.43
2022-09-10T17:38:59.353Z,4.05
2022-09-10T17:41:29.712Z,4.25
2022-09-10T17:43:58.698Z,4.82
2022-09-10T17:46:27.248Z,4.95
2022-09-10T17:48:54.625Z,4.75
2022-09-10T17:51:27.132Z,8.13
2022-09-10T17:53:55.576Z,5.32
2022-09-10T17:56:24.173Z,6.15
2022-09-10T17:58:57.368Z,5.45
2022-09-10T18:01:30.095Z,5.40
2022-09-10T18:03:57.084Z,5.85
2022-09-10T18:06:29.370Z,7.43
2022-09-10T18:09:00.684Z,8.80
2022-09-10T18:11:30.297Z,9.02
2022-09-10T18:13:58.293Z,12.52
2022-09-10T18:16:28.595Z,8.73
2022-09-10T18:19:04.619Z,8.98
2022-09-10T18:21:34.147Z,7.28
2022-09-10T18:24:05.404Z,7.78
2022-09-10T18:26:35.129Z,6.45
2022-09-10T18:31:34.110Z,5.60
2022-09-10T18:34:05.447Z,5.82
2022-09-10T18:36:32.206Z,5.30
2022-09-10T18:39:02.713Z,5.82
2022-09-10T18:41:32.593Z,5.60
2022-09-10T18:44:02.191Z,5.30
2022-09-10T18:46:32.350Z,5.47
2022-09-10T18:48:59.983Z,4.93
2022-09-10T18:51:29.774Z,4.57
2022-09-10T18:56:27.649Z,4.55
2022-09-10T18:59:00.541Z,5.05
2022-09-10T19:01:29.536Z,4.53
2022-09-10T19:03:57.666Z,4.78
2022-09-10T19:06:29.744Z,5.03
2022-09-10T19:08:59.415Z,5.93
2022-09-10T19:13:56.743Z,5.40
2022-09-10T19:16:27.547Z,5.80
2022-09-10T19:18:59.704Z,5.25
2022-09-10T19:21:28.880Z,5.45
2022-09-10T19:23:59.443Z,6.30
2022-09-10T19:26:29.222Z,6.30
2022-09-10T19:29:00.201Z,15.63
2022-09-10T19:31:28.629Z,5.95
2022-09-10T19:33:57.680Z,7.25
2022-09-10T19:36:27.588Z,6.45
2022-09-10T19:38:55.157Z,5.88
2022-09-10T19:41:23.493Z,5.90
2022-09-10T19:43:51.966Z,6.30
2022-09-10T19:46:20.246Z,6.60
2022-09-10T19:48:47.725Z,7.00
2022-09-10T19:51:17.631Z,6.70
2022-09-10T19:53:45.074Z,7.07
2022-09-10T19:56:20.450Z,7.43
2022-09-10T19:58:50.095Z,6.70
2022-09-10T20:01:26.134Z,7.40
2022-09-10T20:03:54.336Z,7.60
2022-09-10T20:06:25.612Z,7.10
2022-09-10T20:08:52.921Z,7.13
2022-09-10T20:11:24.623Z,7.57
2022-09-10T20:14:02.292Z,7.55
2022-09-10T20:16:31.623Z,8.00
2022-09-10T20:18:58.564Z,8.35
2022-09-10T20:21:31.063Z,7.90
2022-09-10T20:23:59.039Z,7.70
2022-09-10T20:26:27.666Z,8.23
2022-09-10T20:29:04.028Z,6.65
2022-09-10T20:31:33.986Z,7.88
2022-09-10T20:34:05.660Z,7.35
2022-09-10T20:36:34.992Z,14.48
2022-09-10T20:39:02.131Z,7.85
2022-09-10T20:41:31.970Z,8.30
2022-09-10T20:46:28.552Z,7.30
2022-09-10T20:49:03.275Z,7.32
2022-09-10T20:51:40.628Z,7.18
2022-09-10T20:54:14.684Z,7.78
2022-09-10T20:56:41.510Z,8.20
2022-09-10T20:59:08.375Z,7.97
2022-09-10T21:01:35.278Z,8.45
2022-09-10T21:04:03.136Z,7.85
2022-09-10T21:06:32.349Z,8.23
2022-09-10T21:09:00.226Z,7.97
2022-09-10T21:11:29.670Z,7.82
2022-09-10T21:13:58.475Z,8.60
2022-09-10T21:16:32.285Z,7.73
2022-09-10T21:19:01.223Z,7.97
2022-09-10T21:21:30.416Z,7.43
2022-09-10T21:24:01.415Z,6.97
2022-09-10T21:26:30.879Z,6.90
2022-09-10T21:28:59.881Z,6.70
2022-09-10T21:31:27.515Z,6.68
2022-09-10T21:34:00.616Z,6.85
2022-09-10T21:36:30.197Z,6.55
2022-09-10T21:39:00.457Z,7.40
2022-09-10T21:41:47.945Z,7.38
2022-09-10T21:44:21.135Z,6.60
2022-09-10T21:46:52.307Z,6.82
2022-09-10T21:49:20.307Z,6.57
2022-09-10T21:51:47.038Z,6.15
2022-09-10T21:54:17.162Z,6.78
2022-09-10T21:56:43.845Z,6.50
2022-09-10T21:59:12.388Z,6.63
2022-09-10T22:01:43.943Z,6.80
2022-09-10T22:04:11.939Z,6.15
2022-09-10T22:06:39.134Z,6.72
2022-09-10T22:09:09.556Z,6.70
2022-09-10T22:11:45.910Z,6.35
2022-09-10T22:14:18.106Z,6.82
2022-09-10T22:16:48.378Z,6.38
2022-09-10T22:19:19.895Z,7.85
2022-09-10T22:21:47.222Z,7.95
2022-09-10T22:24:14.864Z,9.10
2022-09-10T22:26:44.013Z,9.48
2022-09-10T22:29:12.505Z,7.68
2022-09-10T22:31:39.170Z,7.30
2022-09-10T22:34:13.522Z,6.55
2022-09-10T22:36:41.740Z,6.80
2022-09-10T22:39:14.393Z,7.15
2022-09-10T22:41:41.688Z,7.28
2022-09-10T22:44:08.931Z,7.30
2022-09-10T22:46:36.949Z,7.93
2022-09-10T22:49:04.643Z,7.97
2022-09-10T22:51:37.676Z,7.82
2022-09-10T22:54:05.532Z,7.22
2022-09-10T22:56:33.188Z,7.10
2022-09-10T22:59:00.286Z,6.95
2022-09-10T23:01:29.906Z,7.82
2022-09-10T23:04:01.337Z,7.50
2022-09-10T23:06:30.877Z,7.53
2022-09-10T23:09:03.654Z,6.82
2022-09-10T23:11:32.612Z,7.65
2022-09-10T23:14:02.488Z,6.53
2022-09-10T23:16:49.791Z,9.13
2022-09-10T23:19:20.078Z,6.95
2022-09-10T23:21:51.356Z,7.22
2022-09-10T23:24:20.563Z,6.40
2022-09-10T23:26:47.368Z,7.07
2022-09-10T23:29:18.671Z,7.30
2022-09-10T23:31:46.326Z,8.35
2022-09-10T23:34:18.794Z,7.70
2022-09-10T23:36:47.460Z,7.43
2022-09-10T23:39:20.171Z,7.68
2022-09-10T23:41:48.409Z,7.10
2022-09-10T23:44:15.165Z,8.38
2022-09-10T23:46:41.962Z,7.20
2022-09-10T23:49:09.027Z,7.50
2022-09-10T23:51:36.723Z,7.03
2022-09-10T23:54:03.683Z,6.72
2022-09-10T23:56:30.636Z,6.32
2022-09-10T23:58:59.617Z,7.05
